METAR AND TAF INFORMATION
METAR FOR UADD
ADDS - METARS form results

(0717 UTC 22 January 2019)
Data provider http://aviationweather.gov/metar/data/
 
METAR text: UADD 220700Z VRB01MPS 0900 R13/0900 FZFG VV001 M03/M03 Q1021 R13/19//60 NOSIG RMK QBB050 MT OBSC QFE709/0945
Conditions at: UADD (TARAZ , KZ) observed 0700 UTC 22 January 2019
Temperature: -3.0°C (27°F)
Dewpoint: -3.0°C (27°F) [RH = 100%]
Pressure (altimeter): 30.15 inches Hg (1021.0 mb)
Winds: variable direction winds at 2 MPH (2 knots; 1.0 m/s)
Visibility: 0.56 miles (0.90 km)
Ceiling: indefinite ceiling with vertical visibility of 100 feet AGL
Clouds: obscured sky
Weather: FZFG  (freezing fog)

METAR text: UADD 220630Z VRB01MPS 0200 R13/0250N FZFG VV001 M03/M03 Q1021 R13/19//60 NOSIG RMK QBB050 MT OBSC QFE709/0945
Conditions at: UADD (TARAZ , KZ) observed 0630 UTC 22 January 2019
Temperature: -3.0°C (27°F)
Dewpoint: -3.0°C (27°F) [RH = 100%]
Pressure (altimeter): 30.15 inches Hg (1021.0 mb)
Winds: variable direction winds at 2 MPH (2 knots; 1.0 m/s)
Visibility: 0.12 miles (0.19 km)
Ceiling: indefinite ceiling with vertical visibility of 100 feet AGL
Clouds: obscured sky
Weather: FZFG  (freezing fog)

Forecast for: UADD (TARAZ , KZ)
Text: TAF UADD 220500Z 2206/2215 34004MPS 1000 BR OVC003
Forecast period: 0600 to 1500 UTC 22 January 2019
Forecast type: FROM: standard forecast or significant change
Winds: from the NNW (340 degrees) at 9 MPH (8 knots; 4.1 m/s)
Visibility: 0.62 miles (1.00 km)
Ceiling: 300 feet AGL
Clouds: overcast cloud deck at 300 feet AGL
Weather: BR  (mist)
Text: TEMPO 2206/2210 0200 FZFG VV001
Forecast period: 0600 to 1000 UTC 22 January 2019
Forecast type: TEMPORARY: The following changes expected for less than half the time period
Visibility: 0.12 miles (0.19 km)
Ceiling: indefinite ceiling with vertical visibility of 100 feet AGL
Clouds: obscured sky
Weather: FZFG  (freezing fog)
Text: TEMPO 2210/2215 0600 FZFG VV002
Forecast period: 1000 to 1500 UTC 22 January 2019
Forecast type: TEMPORARY: The following changes expected for less than half the time period
Visibility: 0.37 miles (0.60 km)
Ceiling: indefinite ceiling with vertical visibility of 200 feet AGL
Clouds: obscured sky
Weather: FZFG  (freezing fog)

 AIRPORT MAP

 RUNWAY INFORMATION

 AIRPORT FREQUENCIES
Type APP Name APP Frequency 122.1 MHZ
Type TWR Name TWR Frequency 122.1 MHZ

 AIRPORT NEAR NAVIGATION AIDS
Type NDB Name Taraz Frequency 103 KHZ
Type NDB Name Taraz Frequency 103 KHZ



2018 Air Astana Virtual Airline